createdAt,value
2023-01-09T00:01:19.209Z,81.24
2023-01-09T00:03:47.827Z,82.02
2023-01-09T00:06:16.490Z,82.20
2023-01-09T00:08:45.276Z,81.79
2023-01-09T00:11:15.111Z,81.69
2023-01-09T00:13:43.565Z,81.86
2023-01-09T00:16:12.677Z,82.98
2023-01-09T00:18:41.097Z,81.74
2023-01-09T00:21:11.687Z,82.11
2023-01-09T00:23:40.362Z,82.56
2023-01-09T00:26:10.024Z,82.32
2023-01-09T00:28:39.793Z,82.71
2023-01-09T00:31:09.715Z,82.99
2023-01-09T00:33:41.125Z,82.35
2023-01-09T00:36:10.508Z,82.67
2023-01-09T00:38:39.649Z,82.86
2023-01-09T00:41:10.218Z,83.08
2023-01-09T00:43:42.725Z,83.09
2023-01-09T00:46:11.952Z,82.59
2023-01-09T00:48:42.215Z,82.25
2023-01-09T00:51:10.729Z,82.87
2023-01-09T00:53:40.698Z,82.31
2023-01-09T00:56:12.854Z,83.50
2023-01-09T00:58:42.956Z,82.47
2023-01-09T01:01:12.284Z,82.97
2023-01-09T01:03:40.796Z,82.86
2023-01-09T01:06:26.779Z,82.37
2023-01-09T01:08:56.984Z,82.26
2023-01-09T01:11:25.802Z,82.94
2023-01-09T01:13:55.492Z,81.96
2023-01-09T01:16:23.883Z,82.42
2023-01-09T01:18:52.299Z,81.86
2023-01-09T01:21:20.681Z,82.59
2023-01-09T01:23:48.983Z,81.69
2023-01-09T01:26:20.592Z,81.52
2023-01-09T01:28:48.966Z,80.95
2023-01-09T01:31:20.259Z,81.72
2023-01-09T01:33:48.715Z,81.02
2023-01-09T01:36:18.039Z,80.41
2023-01-09T01:38:48.097Z,80.35
2023-01-09T01:41:29.682Z,80.30
2023-01-09T01:43:59.776Z,80.07
2023-01-09T01:46:30.250Z,80.12
2023-01-09T01:49:03.983Z,79.20
2023-01-09T01:51:40.472Z,78.84
2023-01-09T01:54:14.597Z,79.53
2023-01-09T01:56:45.470Z,79.24
2023-01-09T01:59:18.645Z,79.43
2023-01-09T02:01:51.408Z,78.85
2023-01-09T02:04:19.972Z,78.05
2023-01-09T02:06:49.299Z,77.99
2023-01-09T02:09:20.599Z,77.78
2023-01-09T02:11:52.416Z,78.00
2023-01-09T02:14:21.742Z,78.83
2023-01-09T02:17:17.970Z,78.72
2023-01-09T02:20:23.655Z,78.23
2023-01-09T02:22:53.780Z,76.98
2023-01-09T02:25:45.226Z,77.07
2023-01-09T02:28:53.988Z,77.06
2023-01-09T02:31:27.410Z,77.88
2023-01-09T02:34:00.667Z,77.77
2023-01-09T02:36:32.575Z,77.30
2023-01-09T02:39:12.358Z,76.67
2023-01-09T02:44:21.710Z,76.84
2023-01-09T02:47:01.327Z,77.81
2023-01-09T02:49:30.017Z,77.25
2023-01-09T02:52:05.885Z,77.13
2023-01-09T02:54:40.516Z,76.47
2023-01-09T02:57:19.934Z,77.43
2023-01-09T03:00:09.185Z,76.30
2023-01-09T03:02:49.530Z,76.65
2023-01-09T03:05:22.769Z,76.48
2023-01-09T03:07:56.729Z,75.80
2023-01-09T03:10:29.595Z,76.15
2023-01-09T03:12:59.861Z,76.63
2023-01-09T03:15:31.419Z,76.01
2023-01-09T03:18:02.331Z,75.96
2023-01-09T03:20:31.699Z,76.61
2023-01-09T03:23:01.574Z,76.01
2023-01-09T03:25:31.708Z,76.36
2023-01-09T03:28:01.790Z,76.48
2023-01-09T03:30:31.211Z,77.09
2023-01-09T03:33:01.340Z,75.95
2023-01-09T03:35:30.061Z,76.86
2023-01-09T03:37:59.162Z,77.03
2023-01-09T03:40:27.644Z,76.45
2023-01-09T03:42:56.122Z,76.39
2023-01-09T03:45:24.615Z,77.45
2023-01-09T03:47:53.175Z,76.60
2023-01-09T03:50:23.066Z,76.79
2023-01-09T03:52:52.420Z,76.25
2023-01-09T03:55:20.886Z,76.16
2023-01-09T03:57:52.828Z,76.80
2023-01-09T04:00:22.108Z,76.86
2023-01-09T04:02:50.615Z,76.29
2023-01-09T04:05:19.051Z,77.33
2023-01-09T04:07:48.781Z,76.79
2023-01-09T04:10:18.002Z,76.66
2023-01-09T04:12:46.432Z,77.15
2023-01-09T04:15:14.867Z,76.77
2023-01-09T04:17:43.220Z,77.79
2023-01-09T04:20:12.606Z,76.85
2023-01-09T04:22:41.227Z,76.69
2023-01-09T04:25:14.613Z,76.60
2023-01-09T04:27:43.010Z,76.55
2023-01-09T04:30:12.613Z,76.49
2023-01-09T04:32:41.070Z,77.03
2023-01-09T04:35:10.062Z,77.12
2023-01-09T04:37:39.521Z,77.16
2023-01-09T04:40:12.435Z,76.89
2023-01-09T04:42:41.672Z,76.52
2023-01-09T04:45:15.533Z,76.48
2023-01-09T04:47:44.835Z,76.56
2023-01-09T04:50:14.090Z,76.49
2023-01-09T04:52:42.471Z,76.78
2023-01-09T04:55:12.413Z,77.40
2023-01-09T04:57:41.136Z,77.23
2023-01-09T05:00:12.439Z,77.33
2023-01-09T05:02:42.043Z,76.77
2023-01-09T05:05:11.831Z,76.57
2023-01-09T05:07:41.147Z,75.98
2023-01-09T05:10:12.553Z,75.80
2023-01-09T05:12:41.546Z,75.65
2023-01-09T05:15:10.762Z,75.58
2023-01-09T05:17:39.220Z,76.18
2023-01-09T05:20:08.485Z,76.69
2023-01-09T05:22:37.018Z,76.83
2023-01-09T05:25:05.789Z,76.29
2023-01-09T05:27:35.613Z,76.90
2023-01-09T05:30:04.073Z,76.99
2023-01-09T05:32:36.155Z,76.91
2023-01-09T05:35:04.767Z,76.95
2023-01-09T05:37:33.191Z,76.74
2023-01-09T05:40:01.560Z,77.48
2023-01-09T05:42:31.898Z,77.07
2023-01-09T05:45:01.661Z,77.92
2023-01-09T05:47:30.439Z,77.42
2023-01-09T05:49:58.802Z,77.21
2023-01-09T05:52:27.393Z,77.12
2023-01-09T05:54:55.866Z,77.16
2023-01-09T05:57:24.336Z,77.33
2023-01-09T05:59:52.932Z,75.87
2023-01-09T06:02:22.799Z,76.37
2023-01-09T06:04:51.225Z,77.25
2023-01-09T06:07:22.085Z,76.36
2023-01-09T06:09:51.705Z,76.81
2023-01-09T06:12:20.421Z,75.84
2023-01-09T06:14:48.776Z,76.78
2023-01-09T06:17:17.152Z,76.63
2023-01-09T06:19:46.891Z,77.14
2023-01-09T06:22:15.457Z,76.07
2023-01-09T06:24:43.884Z,76.78
2023-01-09T06:27:13.183Z,76.59
2023-01-09T06:29:41.610Z,76.01
2023-01-09T06:32:09.990Z,76.47
2023-01-09T06:34:38.357Z,75.44
2023-01-09T06:37:09.179Z,75.55
2023-01-09T06:39:37.552Z,75.48
2023-01-09T06:42:06.053Z,75.72
2023-01-09T06:44:36.799Z,74.77
2023-01-09T06:47:05.337Z,75.12
2023-01-09T06:49:33.716Z,74.98
2023-01-09T06:52:05.714Z,74.83
2023-01-09T06:54:35.746Z,74.52
2023-01-09T06:57:04.144Z,74.03
2023-01-09T06:59:32.625Z,73.62
2023-01-09T07:02:01.126Z,74.04
2023-01-09T07:04:29.683Z,74.10
2023-01-09T07:06:58.051Z,73.31
2023-01-09T07:09:26.496Z,73.67
2023-01-09T07:11:56.278Z,72.83
2023-01-09T07:14:24.694Z,73.00
2023-01-09T07:16:53.054Z,72.40
2023-01-09T07:19:21.414Z,72.96
2023-01-09T07:21:49.769Z,73.19
2023-01-09T07:24:18.139Z,72.93
2023-01-09T07:26:46.563Z,73.66
2023-01-09T07:29:16.411Z,72.88
2023-01-09T07:31:47.059Z,72.54
2023-01-09T07:34:15.527Z,73.32
2023-01-09T07:36:46.628Z,72.87
2023-01-09T07:39:15.286Z,73.06
2023-01-09T07:41:43.729Z,72.44
2023-01-09T07:44:12.226Z,72.94
2023-01-09T07:46:43.047Z,71.85
2023-01-09T07:49:11.610Z,72.60
2023-01-09T07:51:43.378Z,72.67
2023-01-09T07:54:12.740Z,72.83
2023-01-09T07:56:41.308Z,72.09
2023-01-09T07:59:09.757Z,72.30
2023-01-09T08:01:38.299Z,72.10
2023-01-09T08:04:08.253Z,72.52
2023-01-09T08:06:36.741Z,71.66
2023-01-09T08:09:05.231Z,72.09
2023-01-09T08:11:33.620Z,70.97
2023-01-09T08:14:01.946Z,70.82
2023-01-09T08:16:30.361Z,71.21
2023-01-09T08:18:58.730Z,72.29
2023-01-09T08:21:28.457Z,73.08
2023-01-09T08:23:56.895Z,72.95
2023-01-09T08:26:25.272Z,72.79
2023-01-09T08:28:53.717Z,71.88
2023-01-09T08:31:22.153Z,71.42
2023-01-09T08:33:50.599Z,71.61
2023-01-09T08:36:19.019Z,71.86
2023-01-09T08:38:48.784Z,70.65
2023-01-09T08:41:34.564Z,70.05
2023-01-09T08:44:20.513Z,70.90
2023-01-09T08:47:07.012Z,70.42
2023-01-09T08:49:36.191Z,71.29
2023-01-09T08:52:05.115Z,70.79
2023-01-09T08:54:36.945Z,71.24
2023-01-09T08:57:05.526Z,71.53
2023-01-09T08:59:33.944Z,71.76
2023-01-09T09:02:02.532Z,71.63
2023-01-09T09:04:31.304Z,70.92
2023-01-09T09:06:59.771Z,71.49
2023-01-09T09:09:28.182Z,71.48
2023-01-09T09:11:57.965Z,71.55
2023-01-09T09:14:43.975Z,72.00
2023-01-09T09:17:14.578Z,72.08
2023-01-09T09:19:43.586Z,71.38
2023-01-09T09:22:14.534Z,70.65
2023-01-09T09:24:43.147Z,70.38
2023-01-09T09:27:12.925Z,71.79
2023-01-09T09:29:41.274Z,70.64
2023-01-09T09:32:09.621Z,70.74
2023-01-09T09:34:37.994Z,71.96
2023-01-09T09:37:06.499Z,71.14
2023-01-09T09:39:35.121Z,71.36
2023-01-09T09:42:40.801Z,71.11
2023-01-09T09:45:22.283Z,70.60
2023-01-09T09:47:57.374Z,70.95
2023-01-09T09:50:32.209Z,70.84
2023-01-09T09:53:04.827Z,70.72
2023-01-09T09:55:35.614Z,71.49
2023-01-09T09:58:08.473Z,73.06
2023-01-09T10:00:37.019Z,72.02
2023-01-09T10:03:07.770Z,72.53
2023-01-09T10:05:37.275Z,73.76
2023-01-09T10:08:15.651Z,72.46
2023-01-09T10:10:48.235Z,72.96
2023-01-09T10:13:37.654Z,74.08
2023-01-09T10:16:10.119Z,73.66
2023-01-09T10:18:48.213Z,73.31
2023-01-09T10:21:18.903Z,74.93
2023-01-09T10:24:04.684Z,72.44
2023-01-09T10:26:38.258Z,73.09
2023-01-09T10:29:28.257Z,73.30
2023-01-09T10:32:07.644Z,72.59
2023-01-09T10:34:47.014Z,72.26
2023-01-09T10:37:16.926Z,72.23
2023-01-09T10:39:50.144Z,70.47
2023-01-09T10:42:23.687Z,70.98
2023-01-09T10:44:57.029Z,70.41
2023-01-09T10:47:29.309Z,69.54
2023-01-09T10:49:58.550Z,69.76
2023-01-09T10:52:30.450Z,69.47
2023-01-09T10:55:07.343Z,69.53
2023-01-09T10:57:42.098Z,70.63
2023-01-09T11:00:21.580Z,70.90
2023-01-09T11:02:52.037Z,70.85
2023-01-09T11:05:22.305Z,70.33
2023-01-09T11:07:54.425Z,70.90
2023-01-09T11:10:22.903Z,70.67
2023-01-09T11:12:51.285Z,70.39
2023-01-09T11:15:29.282Z,70.97
2023-01-09T11:18:19.849Z,72.14
2023-01-09T11:20:48.286Z,71.22
2023-01-09T11:23:28.877Z,72.38
2023-01-09T11:25:58.990Z,71.92
2023-01-09T11:28:27.562Z,72.26
2023-01-09T11:30:59.857Z,71.52
2023-01-09T11:33:30.400Z,72.00
2023-01-09T11:36:02.107Z,72.88
2023-01-09T11:38:31.137Z,71.72
2023-01-09T11:41:01.649Z,72.31
2023-01-09T11:43:33.882Z,72.37
2023-01-09T11:46:05.807Z,72.61
2023-01-09T11:48:39.860Z,72.58
2023-01-09T11:51:20.508Z,72.76
2023-01-09T11:54:14.213Z,72.44
2023-01-09T11:56:42.986Z,73.42
2023-01-09T11:59:13.456Z,73.49
2023-01-09T12:02:06.912Z,72.66
2023-01-09T12:04:37.396Z,74.09
2023-01-09T12:07:22.434Z,73.44
2023-01-09T12:09:59.265Z,73.72
2023-01-09T12:12:32.800Z,74.50
2023-01-09T12:15:17.731Z,74.73
2023-01-09T12:17:58.198Z,74.85
2023-01-09T12:20:35.141Z,74.65
2023-01-09T12:23:17.261Z,75.03
2023-01-09T12:25:52.064Z,75.93
2023-01-09T12:28:47.175Z,76.90
2023-01-09T12:31:26.849Z,74.77
2023-01-09T12:34:04.316Z,74.16
2023-01-09T12:36:36.873Z,74.90
2023-01-09T12:39:10.596Z,74.17
2023-01-09T12:41:58.176Z,74.11
2023-01-09T12:44:54.664Z,74.26
2023-01-09T12:47:45.350Z,74.19
2023-01-09T12:50:43.707Z,75.28
2023-01-09T12:53:20.079Z,76.10
2023-01-09T12:55:53.496Z,76.13
2023-01-09T12:58:30.606Z,75.15
2023-01-09T13:01:00.448Z,75.92
2023-01-09T13:03:33.383Z,75.38
2023-01-09T13:06:02.771Z,76.51
2023-01-09T13:08:33.910Z,76.11
2023-01-09T13:11:19.369Z,76.43
2023-01-09T13:13:51.448Z,75.89
2023-01-09T13:16:23.370Z,76.54
2023-01-09T13:18:57.261Z,76.96
2023-01-09T13:21:26.449Z,76.45
2023-01-09T13:24:00.459Z,76.87
2023-01-09T13:26:30.574Z,77.15
2023-01-09T13:29:03.290Z,76.66
2023-01-09T13:31:48.413Z,77.07
2023-01-09T13:34:22.402Z,77.12
2023-01-09T13:36:53.168Z,77.75
2023-01-09T13:39:24.598Z,77.03
2023-01-09T13:42:13.256Z,77.39
2023-01-09T13:44:42.146Z,76.78
2023-01-09T13:47:18.956Z,77.27
2023-01-09T13:50:23.952Z,76.75
2023-01-09T13:52:52.265Z,77.01
2023-01-09T13:55:36.252Z,77.73
2023-01-09T13:58:22.797Z,77.41
2023-01-09T14:01:08.110Z,77.12
2023-01-09T14:03:37.841Z,77.72
2023-01-09T14:06:24.406Z,77.93
2023-01-09T14:09:14.008Z,78.26
2023-01-09T14:11:44.845Z,77.48
2023-01-09T14:14:28.998Z,77.80
2023-01-09T14:16:59.286Z,77.62
2023-01-09T14:19:38.574Z,77.90
2023-01-09T14:22:07.434Z,78.32
2023-01-09T14:24:42.401Z,77.59
2023-01-09T14:27:44.128Z,77.07
2023-01-09T14:30:30.471Z,78.16
2023-01-09T14:32:59.750Z,77.50
2023-01-09T14:35:30.599Z,77.38
2023-01-09T14:38:08.422Z,76.85
2023-01-09T14:40:37.455Z,76.21
2023-01-09T14:43:22.966Z,77.80
2023-01-09T14:45:53.720Z,77.31
2023-01-09T14:48:24.572Z,75.63
2023-01-09T14:50:55.870Z,77.04
2023-01-09T14:53:26.340Z,77.01
2023-01-09T14:55:55.776Z,76.89
2023-01-09T14:58:25.904Z,76.91
2023-01-09T15:01:00.453Z,76.72
2023-01-09T15:03:30.167Z,76.79
2023-01-09T15:05:58.575Z,76.69
2023-01-09T15:08:28.926Z,76.97
2023-01-09T15:10:58.182Z,76.51
2023-01-09T15:13:33.803Z,76.96
2023-01-09T15:16:06.086Z,76.23
2023-01-09T15:18:39.533Z,75.62
2023-01-09T15:21:07.979Z,77.07
2023-01-09T15:23:36.383Z,76.93
2023-01-09T15:26:15.985Z,76.79
2023-01-09T15:28:45.219Z,75.67
2023-01-09T15:31:17.322Z,76.04
2023-01-09T15:33:47.844Z,76.02
2023-01-09T15:36:19.909Z,75.93
2023-01-09T15:38:49.769Z,76.34
2023-01-09T15:41:40.901Z,76.45
2023-01-09T15:44:14.782Z,77.32
2023-01-09T15:46:46.581Z,77.20
2023-01-09T15:49:15.596Z,76.28
2023-01-09T15:51:45.810Z,76.05
2023-01-09T15:54:15.846Z,76.99
2023-01-09T15:56:46.101Z,77.00
2023-01-09T15:59:24.585Z,76.60
2023-01-09T16:02:20.897Z,76.79
2023-01-09T16:04:50.284Z,76.88
2023-01-09T16:07:21.669Z,75.96
2023-01-09T16:09:53.538Z,76.12
2023-01-09T16:12:23.982Z,76.39
2023-01-09T16:14:53.928Z,76.67
2023-01-09T16:17:26.755Z,76.55
2023-01-09T16:19:58.051Z,76.62
2023-01-09T16:22:27.815Z,76.22
2023-01-09T16:24:58.571Z,76.12
2023-01-09T16:27:29.047Z,76.40
2023-01-09T16:29:59.838Z,76.48
2023-01-09T16:32:31.785Z,76.06
2023-01-09T16:35:01.456Z,76.43
2023-01-09T16:37:32.271Z,76.64
2023-01-09T16:40:26.534Z,76.89
2023-01-09T16:43:03.495Z,76.84
2023-01-09T16:45:34.656Z,75.93
2023-01-09T16:48:11.191Z,75.39
2023-01-09T16:50:40.416Z,75.28
2023-01-09T16:53:14.769Z,75.20
2023-01-09T16:55:43.431Z,75.07
2023-01-09T16:58:17.606Z,75.61
2023-01-09T17:00:48.250Z,76.04
2023-01-09T17:03:20.372Z,75.76
2023-01-09T17:05:55.250Z,75.79
2023-01-09T17:08:28.365Z,76.02
2023-01-09T17:10:58.253Z,75.15
2023-01-09T17:13:27.873Z,75.64
2023-01-09T17:15:57.736Z,76.12
2023-01-09T17:18:29.676Z,75.76
2023-01-09T17:20:59.450Z,76.18
2023-01-09T17:23:28.933Z,76.19
2023-01-09T17:26:16.810Z,76.53
2023-01-09T17:28:46.455Z,76.49
2023-01-09T17:31:16.143Z,76.79
2023-01-09T17:33:45.988Z,76.91
2023-01-09T17:36:21.329Z,76.13
2023-01-09T17:38:54.849Z,76.48
2023-01-09T17:41:23.979Z,77.08
2023-01-09T17:43:52.438Z,76.28
2023-01-09T17:46:24.702Z,76.13
2023-01-09T17:48:54.637Z,75.93
2023-01-09T17:51:23.384Z,76.17
2023-01-09T17:53:51.892Z,76.94
2023-01-09T17:56:22.635Z,76.78
2023-01-09T17:58:51.130Z,76.30
2023-01-09T18:01:21.173Z,76.16
2023-01-09T18:03:50.703Z,76.78
2023-01-09T18:06:22.211Z,76.38
2023-01-09T18:08:50.955Z,76.94
2023-01-09T18:11:24.297Z,76.70
2023-01-09T18:13:54.375Z,76.84
2023-01-09T18:16:25.258Z,75.96
2023-01-09T18:18:54.823Z,76.76
2023-01-09T18:21:25.364Z,76.46
2023-01-09T18:23:53.942Z,76.25
2023-01-09T18:26:25.644Z,76.40
2023-01-09T18:28:56.962Z,76.33
2023-01-09T18:31:28.349Z,76.59
2023-01-09T18:33:58.270Z,77.35
2023-01-09T18:36:30.117Z,77.27
2023-01-09T18:39:00.700Z,76.56
2023-01-09T18:41:30.107Z,76.76
2023-01-09T18:44:00.228Z,76.17
2023-01-09T18:46:32.452Z,76.91
2023-01-09T18:49:02.405Z,76.85
2023-01-09T18:51:34.793Z,76.47
2023-01-09T18:54:03.209Z,76.50
2023-01-09T18:56:31.901Z,77.36
2023-01-09T18:59:00.413Z,76.91
2023-01-09T19:01:29.731Z,77.36
2023-01-09T19:03:58.528Z,77.01
2023-01-09T19:06:27.427Z,76.98
2023-01-09T19:08:57.552Z,77.07
2023-01-09T19:11:25.996Z,76.91
2023-01-09T19:13:54.659Z,77.63
2023-01-09T19:16:23.093Z,77.75
2023-01-09T19:18:51.570Z,77.23
2023-01-09T19:21:21.192Z,77.67
2023-01-09T19:23:51.125Z,77.33
2023-01-09T19:26:23.865Z,78.24
2023-01-09T19:28:55.334Z,78.55
2023-01-09T19:31:24.787Z,77.79
2023-01-09T19:33:54.211Z,77.25
2023-01-09T19:36:23.216Z,77.41
2023-01-09T19:38:57.113Z,76.83
2023-01-09T19:41:28.399Z,76.78
2023-01-09T19:43:57.003Z,77.32
2023-01-09T19:46:26.618Z,77.33
2023-01-09T19:48:55.177Z,78.05
2023-01-09T19:51:24.961Z,78.15
2023-01-09T19:53:54.937Z,77.45
2023-01-09T19:56:24.760Z,77.85
2023-01-09T19:58:55.636Z,77.64
2023-01-09T20:01:25.763Z,78.22
2023-01-09T20:03:56.567Z,77.67
2023-01-09T20:06:26.562Z,77.57
2023-01-09T20:08:56.700Z,77.62
2023-01-09T20:11:26.549Z,77.77
2023-01-09T20:13:56.750Z,78.30
2023-01-09T20:16:28.387Z,78.30
2023-01-09T20:18:57.831Z,78.29
2023-01-09T20:21:27.999Z,78.15
2023-01-09T20:23:58.210Z,77.85
2023-01-09T20:26:27.161Z,77.46
2023-01-09T20:28:57.416Z,77.19
2023-01-09T20:31:28.260Z,77.21
2023-01-09T20:33:59.061Z,76.97
2023-01-09T20:36:30.251Z,77.38
2023-01-09T20:39:01.134Z,77.61
2023-01-09T20:41:31.476Z,78.30
2023-01-09T20:44:07.123Z,78.10
2023-01-09T20:46:37.287Z,77.29
2023-01-09T20:51:36.303Z,77.94
2023-01-09T20:56:36.265Z,76.87
2023-01-09T20:59:07.055Z,77.49
2023-01-09T21:01:35.696Z,77.38
2023-01-09T21:04:04.297Z,76.62
2023-01-09T21:06:33.134Z,77.40
2023-01-09T21:09:01.517Z,76.70
2023-01-09T21:11:30.060Z,76.62
2023-01-09T21:13:58.623Z,76.81
2023-01-09T21:16:29.477Z,76.88
2023-01-09T21:18:57.957Z,76.95
2023-01-09T21:21:27.796Z,77.33
2023-01-09T21:23:58.337Z,77.21
2023-01-09T21:26:30.475Z,77.10
2023-01-09T21:29:01.404Z,77.75
2023-01-09T21:31:34.934Z,77.71
2023-01-09T21:34:05.707Z,77.43
2023-01-09T21:36:35.501Z,76.86
2023-01-09T21:39:07.479Z,77.10
2023-01-09T21:41:53.826Z,76.98
2023-01-09T21:44:39.503Z,76.64
2023-01-09T21:47:09.327Z,76.57
2023-01-09T21:49:41.137Z,77.09
2023-01-09T21:52:09.805Z,76.85
2023-01-09T21:54:38.223Z,76.33
2023-01-09T21:57:06.919Z,76.33
2023-01-09T21:59:35.306Z,76.74
2023-01-09T22:02:03.655Z,76.51
2023-01-09T22:04:33.685Z,76.36
2023-01-09T22:07:02.212Z,76.81
2023-01-09T22:09:30.633Z,76.80
2023-01-09T22:11:59.023Z,76.04
2023-01-09T22:14:27.392Z,76.53
2023-01-09T22:16:55.789Z,76.13
2023-01-09T22:19:24.523Z,75.46
2023-01-09T22:21:55.283Z,76.45
2023-01-09T22:24:23.718Z,77.10
2023-01-09T22:26:52.064Z,76.82
2023-01-09T22:29:21.952Z,76.28
2023-01-09T22:31:50.320Z,76.21
2023-01-09T22:34:20.416Z,76.21
2023-01-09T22:36:48.978Z,75.89
2023-01-09T22:39:20.041Z,76.05
2023-01-09T22:41:51.859Z,75.83
2023-01-09T22:44:20.337Z,76.08
2023-01-09T22:46:49.039Z,76.05
2023-01-09T22:49:19.705Z,76.40
2023-01-09T22:51:48.090Z,76.38
2023-01-09T22:54:16.538Z,76.45
2023-01-09T22:56:46.446Z,76.38
2023-01-09T22:59:14.828Z,76.46
2023-01-09T23:01:43.194Z,76.38
2023-01-09T23:04:13.567Z,76.65
2023-01-09T23:06:42.044Z,75.85
2023-01-09T23:09:10.715Z,75.35
2023-01-09T23:11:56.749Z,75.46
2023-01-09T23:14:26.492Z,75.62
2023-01-09T23:16:57.954Z,75.42
2023-01-09T23:19:26.456Z,75.96
2023-01-09T23:21:55.025Z,75.89
2023-01-09T23:24:23.877Z,75.15
2023-01-09T23:26:55.064Z,75.52
2023-01-09T23:29:23.907Z,75.16
2023-01-09T23:31:53.985Z,75.05
2023-01-09T23:34:25.726Z,74.98
2023-01-09T23:36:57.634Z,75.32
2023-01-09T23:39:26.529Z,75.53
2023-01-09T23:42:12.450Z,75.57
2023-01-09T23:44:40.872Z,75.62
2023-01-09T23:47:10.731Z,75.75
2023-01-09T23:49:43.143Z,74.93
2023-01-09T23:52:11.824Z,75.43
2023-01-09T23:54:40.712Z,75.13
2023-01-09T23:57:11.848Z,74.45
2023-01-09T23:59:40.796Z,74.60
